sensor_id;sensor_type;location;lat;lon;timestamp;pressure;altitude;pressure_sealevel;temperature;humidity
28354;BME280;15603;50.878;8.036;2023-06-26T00:00:09;147545.50;;;18.08;95.43
28354;BME280;15603;50.878;8.036;2023-06-26T00:02:36;147536.94;;;18.04;95.36
28354;BME280;15603;50.878;8.036;2023-06-26T00:05:04;147480.72;;;17.80;96.24
28354;BME280;15603;50.878;8.036;2023-06-26T00:07:31;147458.72;;;17.71;96.22
28354;BME280;15603;50.878;8.036;2023-06-26T00:10:02;147488.03;;;17.83;96.65
28354;BME280;15603;50.878;8.036;2023-06-26T00:12:30;147497.84;;;17.88;97.24
28354;BME280;15603;50.878;8.036;2023-06-26T00:14:58;147486.81;;;17.83;96.06
28354;BME280;15603;50.878;8.036;2023-06-26T00:17:25;147463.63;;;17.73;97.16
28354;BME280;15603;50.878;8.036;2023-06-26T00:19:52;147456.28;;;17.70;97.62
28354;BME280;15603;50.878;8.036;2023-06-26T00:22:21;147431.88;;;17.60;97.25
28354;BME280;15603;50.878;8.036;2023-06-26T00:24:48;147405.00;;;17.49;97.88
28354;BME280;15603;50.878;8.036;2023-06-26T00:27:15;147394.03;;;17.44;98.03
28354;BME280;15603;50.878;8.036;2023-06-26T00:29:43;147368.34;;;17.33;100.00
28354;BME280;15603;50.878;8.036;2023-06-26T00:32:10;147407.47;;;17.50;99.92
28354;BME280;15603;50.878;8.036;2023-06-26T00:34:37;147394.03;;;17.44;99.07
28354;BME280;15603;50.878;8.036;2023-06-26T00:37:05;147370.81;;;17.34;98.42
28354;BME280;15603;50.878;8.036;2023-06-26T00:39:32;147370.81;;;17.34;99.40
28354;BME280;15603;50.878;8.036;2023-06-26T00:42:01;147348.84;;;17.25;99.44
28354;BME280;15603;50.878;8.036;2023-06-26T00:44:28;147340.28;;;17.21;99.05
28354;BME280;15603;50.878;8.036;2023-06-26T00:46:55;147321.97;;;17.14;99.27
28354;BME280;15603;50.878;8.036;2023-06-26T00:49:22;147339.06;;;17.21;99.33
28354;BME280;15603;50.878;8.036;2023-06-26T00:51:49;147321.97;;;17.14;100.00
28354;BME280;15603;50.878;8.036;2023-06-26T00:54:16;147351.25;;;17.26;99.20
28354;BME280;15603;50.878;8.036;2023-06-26T00:56:48;147347.63;;;17.24;100.00
28354;BME280;15603;50.878;8.036;2023-06-26T00:59:15;147337.81;;;17.20;100.00
28354;BME280;15603;50.878;8.036;2023-06-26T01:01:42;147356.13;;;17.28;99.43
28354;BME280;15603;50.878;8.036;2023-06-26T01:04:10;147291.44;;;17.01;100.00
28354;BME280;15603;50.878;8.036;2023-06-26T01:06:46;147251.16;;;16.84;100.00
28354;BME280;15603;50.878;8.036;2023-06-26T01:09:21;147308.53;;;17.08;100.00
28354;BME280;15603;50.878;8.036;2023-06-26T01:11:50;147269.47;;;16.92;100.00
28354;BME280;15603;50.878;8.036;2023-06-26T01:14:17;147296.31;;;17.03;100.00
28354;BME280;15603;50.878;8.036;2023-06-26T01:16:45;147188.91;;;16.58;100.00
28354;BME280;15603;50.878;8.036;2023-06-26T01:19:26;147265.84;;;16.90;100.00
28354;BME280;15603;50.878;8.036;2023-06-26T01:22:02;147253.63;;;16.85;100.00
28354;BME280;15603;50.878;8.036;2023-06-26T01:24:33;147204.72;;;16.64;100.00
28354;BME280;15603;50.878;8.036;2023-06-26T01:27:04;147243.81;;;16.81;100.00
28354;BME280;15603;50.878;8.036;2023-06-26T01:29:32;147096.16;;;16.19;100.00
28354;BME280;15603;50.878;8.036;2023-06-26T01:32:00;147143.75;;;16.39;100.00
28354;BME280;15603;50.878;8.036;2023-06-26T01:34:29;147224.28;;;16.73;100.00
28354;BME280;15603;50.878;8.036;2023-06-26T01:36:56;147201.13;;;16.63;100.00
28354;BME280;15603;50.878;8.036;2023-06-26T01:39:25;147120.56;;;16.29;100.00
28354;BME280;15603;50.878;8.036;2023-06-26T01:41:53;147124.22;;;16.31;100.00
28354;BME280;15603;50.878;8.036;2023-06-26T01:44:27;147142.53;;;16.38;100.00
28354;BME280;15603;50.878;8.036;2023-06-26T01:47:01;147141.28;;;16.38;100.00
28354;BME280;15603;50.878;8.036;2023-06-26T01:49:56;147136.41;;;16.36;100.00
28354;BME280;15603;50.878;8.036;2023-06-26T01:52:34;147143.75;;;16.39;100.00
28354;BME280;15603;50.878;8.036;2023-06-26T01:57:42;147049.78;;;15.99;100.00
28354;BME280;15603;50.878;8.036;2023-06-26T02:00:10;147044.91;;;15.97;100.00
28354;BME280;15603;50.878;8.036;2023-06-26T02:02:41;147103.47;;;16.22;100.00
28354;BME280;15603;50.878;8.036;2023-06-26T02:05:13;147073.00;;;16.09;100.00
28354;BME280;15603;50.878;8.036;2023-06-26T02:07:40;147076.63;;;16.10;100.00
28354;BME280;15603;50.878;8.036;2023-06-26T02:10:08;147070.53;;;16.08;100.00
28354;BME280;15603;50.878;8.036;2023-06-26T02:12:36;147075.41;;;16.10;100.00
28354;BME280;15603;50.878;8.036;2023-06-26T02:15:04;147022.97;;;15.88;100.00
28354;BME280;15603;50.878;8.036;2023-06-26T02:17:33;146982.69;;;15.71;100.00
28354;BME280;15603;50.878;8.036;2023-06-26T02:20:00;147085.16;;;16.14;100.00
28354;BME280;15603;50.878;8.036;2023-06-26T02:22:27;147037.59;;;15.94;100.00
28354;BME280;15603;50.878;8.036;2023-06-26T02:24:55;147049.78;;;15.99;100.00
28354;BME280;15603;50.878;8.036;2023-06-26T02:27:22;147097.38;;;16.19;100.00
28354;BME280;15603;50.878;8.036;2023-06-26T02:29:52;147065.66;;;16.06;100.00
28354;BME280;15603;50.878;8.036;2023-06-26T02:32:19;147031.47;;;15.92;100.00
28354;BME280;15603;50.878;8.036;2023-06-26T02:34:49;147026.59;;;15.89;100.00
28354;BME280;15603;50.878;8.036;2023-06-26T02:37:18;146975.34;;;15.68;100.00
28354;BME280;15603;50.878;8.036;2023-06-26T02:39:46;146999.81;;;15.78;100.00
28354;BME280;15603;50.878;8.036;2023-06-26T02:42:13;146958.28;;;15.61;100.00
28354;BME280;15603;50.878;8.036;2023-06-26T02:44:40;146963.16;;;15.63;100.00
28354;BME280;15603;50.878;8.036;2023-06-26T02:47:08;146987.59;;;15.73;100.00
28354;BME280;15603;50.878;8.036;2023-06-26T02:49:39;146982.69;;;15.71;100.00
28354;BME280;15603;50.878;8.036;2023-06-26T02:52:06;146979.00;;;15.69;100.00
28354;BME280;15603;50.878;8.036;2023-06-26T02:54:33;146936.34;;;15.51;100.00
28354;BME280;15603;50.878;8.036;2023-06-26T02:57:04;146930.22;;;15.49;100.00
28354;BME280;15603;50.878;8.036;2023-06-26T02:59:32;146916.78;;;15.43;100.00
28354;BME280;15603;50.878;8.036;2023-06-26T03:01:59;146954.63;;;15.59;100.00
28354;BME280;15603;50.878;8.036;2023-06-26T03:04:38;146944.88;;;15.55;100.00
28354;BME280;15603;50.878;8.036;2023-06-26T03:07:09;146955.84;;;15.60;100.00
28354;BME280;15603;50.878;8.036;2023-06-26T03:09:37;146933.88;;;15.50;100.00
28354;BME280;15603;50.878;8.036;2023-06-26T03:12:05;146863.19;;;15.21;100.00
28354;BME280;15603;50.878;8.036;2023-06-26T03:14:33;146885.13;;;15.30;100.00
28354;BME280;15603;50.878;8.036;2023-06-26T03:17:00;146863.19;;;15.21;100.00
28354;BME280;15603;50.878;8.036;2023-06-26T03:19:31;146887.53;;;15.31;100.00
28354;BME280;15603;50.878;8.036;2023-06-26T03:22:27;146931.47;;;15.49;100.00
28354;BME280;15603;50.878;8.036;2023-06-26T03:24:54;146887.53;;;15.31;100.00
28354;BME280;15603;50.878;8.036;2023-06-26T03:27:22;146915.59;;;15.43;100.00
28354;BME280;15603;50.878;8.036;2023-06-26T03:29:49;146863.19;;;15.21;100.00
28354;BME280;15603;50.878;8.036;2023-06-26T03:32:18;146926.59;;;15.47;100.00
28354;BME280;15603;50.878;8.036;2023-06-26T03:34:45;146924.13;;;15.46;100.00
28354;BME280;15603;50.878;8.036;2023-06-26T03:37:13;146899.75;;;15.36;100.00
28354;BME280;15603;50.878;8.036;2023-06-26T03:39:40;146861.91;;;15.20;100.00
28354;BME280;15603;50.878;8.036;2023-06-26T03:42:08;146911.91;;;15.41;100.00
28354;BME280;15603;50.878;8.036;2023-06-26T03:44:35;146877.78;;;15.27;100.00
28354;BME280;15603;50.878;8.036;2023-06-26T03:47:02;146929.00;;;15.48;100.00
28354;BME280;15603;50.878;8.036;2023-06-26T03:49:29;146883.88;;;15.29;100.00
28354;BME280;15603;50.878;8.036;2023-06-26T03:51:57;146925.34;;;15.47;100.00
28354;BME280;15603;50.878;8.036;2023-06-26T03:54:24;146863.19;;;15.21;100.00
28354;BME280;15603;50.878;8.036;2023-06-26T03:56:51;146875.34;;;15.26;100.00
28354;BME280;15603;50.878;8.036;2023-06-26T03:59:18;146941.22;;;15.54;100.00
28354;BME280;15603;50.878;8.036;2023-06-26T04:01:45;146941.22;;;15.54;100.00
28354;BME280;15603;50.878;8.036;2023-06-26T04:04:13;146881.47;;;15.28;100.00
28354;BME280;15603;50.878;8.036;2023-06-26T04:06:41;146911.91;;;15.41;100.00
28354;BME280;15603;50.878;8.036;2023-06-26T04:09:08;146831.47;;;15.07;100.00
28354;BME280;15603;50.878;8.036;2023-06-26T04:11:35;146868.03;;;15.23;100.00
28354;BME280;15603;50.878;8.036;2023-06-26T04:14:02;146902.16;;;15.37;100.00
28354;BME280;15603;50.878;8.036;2023-06-26T04:16:29;146985.09;;;15.72;100.00
28354;BME280;15603;50.878;8.036;2023-06-26T04:18:57;146992.47;;;15.75;100.00
28354;BME280;15603;50.878;8.036;2023-06-26T04:21:24;146960.72;;;15.62;100.00
28354;BME280;15603;50.878;8.036;2023-06-26T04:23:51;146997.34;;;15.77;100.00
28354;BME280;15603;50.878;8.036;2023-06-26T04:26:18;147021.72;;;15.87;100.00
28354;BME280;15603;50.878;8.036;2023-06-26T04:28:46;147060.78;;;16.04;100.00
28354;BME280;15603;50.878;8.036;2023-06-26T04:31:13;147048.56;;;15.99;100.00
28354;BME280;15603;50.878;8.036;2023-06-26T04:33:40;147101.06;;;16.21;100.00
28354;BME280;15603;50.878;8.036;2023-06-26T04:36:09;147151.06;;;16.42;100.00
28354;BME280;15603;50.878;8.036;2023-06-26T04:38:36;147182.81;;;16.55;100.00
28354;BME280;15603;50.878;8.036;2023-06-26T04:41:03;147219.41;;;16.71;100.00
28354;BME280;15603;50.878;8.036;2023-06-26T04:43:31;147224.28;;;16.73;100.00
28354;BME280;15603;50.878;8.036;2023-06-26T04:45:58;147194.97;;;16.60;100.00
28354;BME280;15603;50.878;8.036;2023-06-26T04:48:25;147202.31;;;16.63;100.00
28354;BME280;15603;50.878;8.036;2023-06-26T04:50:55;147243.81;;;16.81;100.00
28354;BME280;15603;50.878;8.036;2023-06-26T04:53:23;147182.81;;;16.55;100.00
28354;BME280;15603;50.878;8.036;2023-06-26T04:55:53;147246.28;;;16.82;100.00
28354;BME280;15603;50.878;8.036;2023-06-26T04:58:20;147269.47;;;16.92;100.00
28354;BME280;15603;50.878;8.036;2023-06-26T05:00:47;147287.78;;;16.99;100.00
28354;BME280;15603;50.878;8.036;2023-06-26T05:03:16;147263.38;;;16.89;100.00
28354;BME280;15603;50.878;8.036;2023-06-26T05:05:44;147307.34;;;17.07;100.00
28354;BME280;15603;50.878;8.036;2023-06-26T05:08:16;147324.41;;;17.15;99.75
28354;BME280;15603;50.878;8.036;2023-06-26T05:10:44;147329.31;;;17.17;98.20
28354;BME280;15603;50.878;8.036;2023-06-26T05:13:11;147326.84;;;17.16;99.21
28354;BME280;15603;50.878;8.036;2023-06-26T05:15:38;147402.56;;;17.48;96.43
28354;BME280;15603;50.878;8.036;2023-06-26T05:18:05;147445.28;;;17.65;96.44
28354;BME280;15603;50.878;8.036;2023-06-26T05:20:34;147395.22;;;17.44;96.53
28354;BME280;15603;50.878;8.036;2023-06-26T05:23:02;147470.91;;;17.76;97.54
28354;BME280;15603;50.878;8.036;2023-06-26T05:25:30;147535.72;;;18.03;97.28
28354;BME280;15603;50.878;8.036;2023-06-26T05:27:58;147562.56;;;18.15;94.80
28354;BME280;15603;50.878;8.036;2023-06-26T05:30:26;147558.94;;;18.13;96.36
28354;BME280;15603;50.878;8.036;2023-06-26T05:32:54;147615.13;;;18.37;94.17
28354;BME280;15603;50.878;8.036;2023-06-26T05:35:22;147591.91;;;18.27;96.18
28354;BME280;15603;50.878;8.036;2023-06-26T05:37:50;147637.13;;;18.46;93.70
28354;BME280;15603;50.878;8.036;2023-06-26T05:40:17;147585.81;;;18.24;94.81
28354;BME280;15603;50.878;8.036;2023-06-26T05:42:45;147734.91;;;18.87;93.26
28354;BME280;15603;50.878;8.036;2023-06-26T05:45:13;147703.06;;;18.74;92.11
28354;BME280;15603;50.878;8.036;2023-06-26T05:47:40;147774.03;;;19.03;91.04
28354;BME280;15603;50.878;8.036;2023-06-26T05:50:09;147866.91;;;19.42;88.71
28354;BME280;15603;50.878;8.036;2023-06-26T05:52:36;147827.78;;;19.26;90.37
28354;BME280;15603;50.878;8.036;2023-06-26T05:55:05;147942.75;;;19.74;89.05
28354;BME280;15603;50.878;8.036;2023-06-26T05:57:34;147986.78;;;19.93;88.26
28354;BME280;15603;50.878;8.036;2023-06-26T06:00:02;147947.63;;;19.76;88.37
28354;BME280;15603;50.878;8.036;2023-06-26T06:02:40;147990.47;;;19.94;87.01
28354;BME280;15603;50.878;8.036;2023-06-26T06:05:08;148045.50;;;20.17;86.87
28354;BME280;15603;50.878;8.036;2023-06-26T06:07:36;148000.22;;;19.98;83.31
28354;BME280;15603;50.878;8.036;2023-06-26T06:10:03;148165.41;;;20.68;81.69
28354;BME280;15603;50.878;8.036;2023-06-26T06:12:31;148205.78;;;20.85;80.79
28354;BME280;15603;50.878;8.036;2023-06-26T06:14:58;148172.75;;;20.71;79.76
28354;BME280;15603;50.878;8.036;2023-06-26T06:17:25;148279.22;;;21.15;76.52
28354;BME280;15603;50.878;8.036;2023-06-26T06:19:52;148277.94;;;21.15;77.30
28354;BME280;15603;50.878;8.036;2023-06-26T06:22:19;148304.88;;;21.26;75.44
28354;BME280;15603;50.878;8.036;2023-06-26T06:24:48;148333.03;;;21.38;75.56
28354;BME280;15603;50.878;8.036;2023-06-26T06:27:18;148356.31;;;21.48;74.99
28354;BME280;15603;50.878;8.036;2023-06-26T06:29:45;148360.00;;;21.49;74.46
28354;BME280;15603;50.878;8.036;2023-06-26T06:32:12;148390.63;;;21.62;74.27
28354;BME280;15603;50.878;8.036;2023-06-26T06:34:39;148396.72;;;21.65;74.53
28354;BME280;15603;50.878;8.036;2023-06-26T06:37:06;148386.94;;;21.61;74.59
28354;BME280;15603;50.878;8.036;2023-06-26T06:39:33;148375.94;;;21.56;74.85
28354;BME280;15603;50.878;8.036;2023-06-26T06:42:01;148416.34;;;21.73;74.51
28354;BME280;15603;50.878;8.036;2023-06-26T06:44:28;148424.88;;;21.76;74.00
28354;BME280;15603;50.878;8.036;2023-06-26T06:46:57;148467.75;;;21.94;73.67
28354;BME280;15603;50.878;8.036;2023-06-26T06:49:24;148489.78;;;22.04;74.38
28354;BME280;15603;50.878;8.036;2023-06-26T06:51:51;148514.28;;;22.14;73.99
28354;BME280;15603;50.878;8.036;2023-06-26T06:54:18;148478.75;;;21.99;75.57
28354;BME280;15603;50.878;8.036;2023-06-26T06:56:46;148527.75;;;22.20;72.28
28354;BME280;15603;50.878;8.036;2023-06-26T06:59:13;148514.28;;;22.14;72.58
28354;BME280;15603;50.878;8.036;2023-06-26T07:01:41;148542.47;;;22.26;72.86
28354;BME280;15603;50.878;8.036;2023-06-26T07:04:08;148551.03;;;22.29;72.44
28354;BME280;15603;50.878;8.036;2023-06-26T07:06:35;148571.84;;;22.38;73.34
28354;BME280;15603;50.878;8.036;2023-06-26T07:09:05;148631.84;;;22.63;72.59
28354;BME280;15603;50.878;8.036;2023-06-26T07:11:33;148704.13;;;22.93;69.49
28354;BME280;15603;50.878;8.036;2023-06-26T07:14:00;148704.13;;;22.93;68.61
28354;BME280;15603;50.878;8.036;2023-06-26T07:16:28;148705.34;;;22.94;68.48
28354;BME280;15603;50.878;8.036;2023-06-26T07:18:55;148705.34;;;22.94;68.02
28354;BME280;15603;50.878;8.036;2023-06-26T07:21:22;148638.00;;;22.66;69.70
28354;BME280;15603;50.878;8.036;2023-06-26T07:23:52;148554.72;;;22.31;70.04
28354;BME280;15603;50.878;8.036;2023-06-26T07:26:19;148515.47;;;22.14;72.08
28354;BME280;15603;50.878;8.036;2023-06-26T07:29:06;148472.66;;;21.96;77.09
28354;BME280;15603;50.878;8.036;2023-06-26T07:31:33;148443.22;;;21.84;75.81
28354;BME280;15603;50.878;8.036;2023-06-26T07:34:01;148427.34;;;21.77;74.51
28354;BME280;15603;50.878;8.036;2023-06-26T07:36:28;148466.50;;;21.94;76.17
28354;BME280;15603;50.878;8.036;2023-06-26T07:38:55;148631.84;;;22.63;72.23
28354;BME280;15603;50.878;8.036;2023-06-26T07:41:22;148635.53;;;22.65;70.82
28354;BME280;15603;50.878;8.036;2023-06-26T07:43:49;148564.53;;;22.35;71.71
28354;BME280;15603;50.878;8.036;2023-06-26T07:46:16;148558.38;;;22.32;72.12
28354;BME280;15603;50.878;8.036;2023-06-26T07:48:43;148488.53;;;22.03;71.40
28354;BME280;15603;50.878;8.036;2023-06-26T07:51:10;148576.75;;;22.40;71.36
28354;BME280;15603;50.878;8.036;2023-06-26T07:53:38;148559.63;;;22.33;71.72
28354;BME280;15603;50.878;8.036;2023-06-26T07:56:05;148537.53;;;22.24;70.81
28354;BME280;15603;50.878;8.036;2023-06-26T07:58:33;148576.75;;;22.40;71.63
28354;BME280;15603;50.878;8.036;2023-06-26T08:01:00;148649.00;;;22.70;72.42
28354;BME280;15603;50.878;8.036;2023-06-26T08:03:27;148660.06;;;22.75;73.30
28354;BME280;15603;50.878;8.036;2023-06-26T08:06:02;148716.41;;;22.99;71.45
28354;BME280;15603;50.878;8.036;2023-06-26T08:08:30;148782.59;;;23.26;68.68
28354;BME280;15603;50.878;8.036;2023-06-26T08:10:57;148858.56;;;23.58;68.35
28354;BME280;15603;50.878;8.036;2023-06-26T08:13:24;148767.88;;;23.20;67.75
28354;BME280;15603;50.878;8.036;2023-06-26T08:15:52;148799.75;;;23.33;68.69
28354;BME280;15603;50.878;8.036;2023-06-26T08:18:19;148740.94;;;23.09;69.47
28354;BME280;15603;50.878;8.036;2023-06-26T08:20:46;148694.34;;;22.89;69.86
28354;BME280;15603;50.878;8.036;2023-06-26T08:23:13;148706.59;;;22.94;71.08
28354;BME280;15603;50.878;8.036;2023-06-26T08:25:40;148789.94;;;23.29;70.17
28354;BME280;15603;50.878;8.036;2023-06-26T08:28:07;148723.72;;;23.02;70.20
28354;BME280;15603;50.878;8.036;2023-06-26T08:30:34;148682.06;;;22.84;70.42
28354;BME280;15603;50.878;8.036;2023-06-26T08:33:02;148649.00;;;22.70;70.54
28354;BME280;15603;50.878;8.036;2023-06-26T08:35:29;148544.94;;;22.27;71.07
28354;BME280;15603;50.878;8.036;2023-06-26T08:37:56;148514.28;;;22.14;72.51
28354;BME280;15603;50.878;8.036;2023-06-26T08:40:24;148442.03;;;21.84;73.33
28354;BME280;15603;50.878;8.036;2023-06-26T08:42:51;148498.31;;;22.07;73.95
28354;BME280;15603;50.878;8.036;2023-06-26T08:45:20;148555.94;;;22.31;74.01
28354;BME280;15603;50.878;8.036;2023-06-26T08:47:51;148569.41;;;22.37;74.18
28354;BME280;15603;50.878;8.036;2023-06-26T08:50:23;148596.38;;;22.48;74.59
28354;BME280;15603;50.878;8.036;2023-06-26T08:52:53;148672.28;;;22.80;72.60
28354;BME280;15603;50.878;8.036;2023-06-26T08:55:23;148625.75;;;22.61;73.49
28354;BME280;15603;50.878;8.036;2023-06-26T08:57:51;148596.38;;;22.48;72.86
28354;BME280;15603;50.878;8.036;2023-06-26T09:00:20;148537.53;;;22.24;74.21
28354;BME280;15603;50.878;8.036;2023-06-26T09:02:47;148636.78;;;22.65;73.49
28354;BME280;15603;50.878;8.036;2023-06-26T09:05:15;148684.53;;;22.85;74.21
28354;BME280;15603;50.878;8.036;2023-06-26T09:07:42;148691.91;;;22.88;72.44
28354;BME280;15603;50.878;8.036;2023-06-26T09:10:09;148686.97;;;22.86;72.24
28354;BME280;15603;50.878;8.036;2023-06-26T09:12:37;148614.75;;;22.56;73.88
28354;BME280;15603;50.878;8.036;2023-06-26T09:15:05;148625.75;;;22.61;73.65
28354;BME280;15603;50.878;8.036;2023-06-26T09:17:38;148624.53;;;22.60;72.21
28354;BME280;15603;50.878;8.036;2023-06-26T09:20:05;148625.75;;;22.61;71.20
28354;BME280;15603;50.878;8.036;2023-06-26T09:22:40;148694.34;;;22.89;72.00
28354;BME280;15603;50.878;8.036;2023-06-26T09:25:08;148696.81;;;22.90;69.96
28354;BME280;15603;50.878;8.036;2023-06-26T09:27:36;148713.94;;;22.98;71.29
28354;BME280;15603;50.878;8.036;2023-06-26T09:30:03;148804.66;;;23.36;68.96
28354;BME280;15603;50.878;8.036;2023-06-26T09:32:31;148772.78;;;23.22;66.97
28354;BME280;15603;50.878;8.036;2023-06-26T09:34:58;148769.09;;;23.21;66.94
28354;BME280;15603;50.878;8.036;2023-06-26T09:37:27;148868.38;;;23.62;68.80
28354;BME280;15603;50.878;8.036;2023-06-26T09:39:54;148861.00;;;23.59;65.52
28354;BME280;15603;50.878;8.036;2023-06-26T09:42:22;148924.78;;;23.86;67.62
28354;BME280;15603;50.878;8.036;2023-06-26T09:44:50;148966.44;;;24.03;65.94
28354;BME280;15603;50.878;8.036;2023-06-26T09:47:21;148887.97;;;23.70;66.31
28354;BME280;15603;50.878;8.036;2023-06-26T09:49:51;148880.66;;;23.67;65.27
28354;BME280;15603;50.878;8.036;2023-06-26T09:52:26;148956.66;;;23.99;67.22
28354;BME280;15603;50.878;8.036;2023-06-26T09:55:09;148968.94;;;24.04;62.55
28354;BME280;15603;50.878;8.036;2023-06-26T09:57:37;148948.06;;;23.96;62.86
28354;BME280;15603;50.878;8.036;2023-06-26T10:00:05;148938.25;;;23.91;61.66
28354;BME280;15603;50.878;8.036;2023-06-26T10:02:38;148885.53;;;23.69;61.81
28354;BME280;15603;50.878;8.036;2023-06-26T10:05:05;148976.25;;;24.07;61.79
28354;BME280;15603;50.878;8.036;2023-06-26T10:07:33;149048.59;;;24.38;62.47
28354;BME280;15603;50.878;8.036;2023-06-26T10:10:02;149101.38;;;24.60;61.68
28354;BME280;15603;50.878;8.036;2023-06-26T10:12:30;149076.78;;;24.49;61.38
28354;BME280;15603;50.878;8.036;2023-06-26T10:14:58;148944.38;;;23.94;60.84
28354;BME280;15603;50.878;8.036;2023-06-26T10:17:28;148945.63;;;23.95;61.42
28354;BME280;15603;50.878;8.036;2023-06-26T10:19:58;148897.75;;;23.75;63.43
28354;BME280;15603;50.878;8.036;2023-06-26T10:22:33;148949.31;;;23.96;61.87
28354;BME280;15603;50.878;8.036;2023-06-26T10:25:06;148988.53;;;24.13;62.61
28354;BME280;15603;50.878;8.036;2023-06-26T10:27:37;149102.59;;;24.60;59.95
28354;BME280;15603;50.878;8.036;2023-06-26T10:30:13;149103.81;;;24.61;59.01
28354;BME280;15603;50.878;8.036;2023-06-26T10:32:42;149174.97;;;24.91;59.00
28354;BME280;15603;50.878;8.036;2023-06-26T10:35:10;149143.06;;;24.77;60.50
28354;BME280;15603;50.878;8.036;2023-06-26T10:37:42;149170.06;;;24.88;57.34
28354;BME280;15603;50.878;8.036;2023-06-26T10:40:11;149108.72;;;24.63;56.21
28354;BME280;15603;50.878;8.036;2023-06-26T10:42:39;149086.63;;;24.54;56.53
28354;BME280;15603;50.878;8.036;2023-06-26T10:45:13;148930.94;;;23.88;55.60
28354;BME280;15603;50.878;8.036;2023-06-26T10:47:44;148919.88;;;23.84;57.33
28354;BME280;15603;50.878;8.036;2023-06-26T10:50:26;148994.63;;;24.15;58.05
28354;BME280;15603;50.878;8.036;2023-06-26T10:55:57;149116.09;;;24.66;58.34
28354;BME280;15603;50.878;8.036;2023-06-26T11:01:14;149059.66;;;24.42;56.43
28354;BME280;15603;50.878;8.036;2023-06-26T11:03:44;148885.53;;;23.69;58.17
28354;BME280;15603;50.878;8.036;2023-06-26T11:06:13;148838.97;;;23.50;60.72
28354;BME280;15603;50.878;8.036;2023-06-26T11:14:26;148891.66;;;23.72;58.80
28354;BME280;15603;50.878;8.036;2023-06-26T11:16:58;148905.13;;;23.78;58.62
28354;BME280;15603;50.878;8.036;2023-06-26T11:19:27;148899.03;;;23.75;56.02
28354;BME280;15603;50.878;8.036;2023-06-26T11:22:02;148968.94;;;24.04;58.17
28354;BME280;15603;50.878;8.036;2023-06-26T11:24:30;149070.66;;;24.47;55.25
28354;BME280;15603;50.878;8.036;2023-06-26T11:27:02;149132.00;;;24.73;57.73
28354;BME280;15603;50.878;8.036;2023-06-26T11:29:30;149163.91;;;24.86;51.23
28354;BME280;15603;50.878;8.036;2023-06-26T11:31:59;149212.97;;;25.06;54.74
28354;BME280;15603;50.878;8.036;2023-06-26T11:34:32;149135.69;;;24.74;51.32
28354;BME280;15603;50.878;8.036;2023-06-26T11:36:59;149052.28;;;24.39;51.43
28354;BME280;15603;50.878;8.036;2023-06-26T11:39:28;148908.88;;;23.79;52.34
28354;BME280;15603;50.878;8.036;2023-06-26T11:41:56;148868.38;;;23.62;53.86
28354;BME280;15603;50.878;8.036;2023-06-26T11:44:23;148875.75;;;23.65;54.45
28354;BME280;15603;50.878;8.036;2023-06-26T11:46:54;148829.13;;;23.46;54.01
28354;BME280;15603;50.878;8.036;2023-06-26T11:49:22;148921.09;;;23.84;54.76
28354;BME280;15603;50.878;8.036;2023-06-26T11:51:52;149025.31;;;24.28;54.05
28354;BME280;15603;50.878;8.036;2023-06-26T11:54:25;148966.44;;;24.03;52.63
28354;BME280;15603;50.878;8.036;2023-06-26T11:56:57;148924.78;;;23.86;51.61
28354;BME280;15603;50.878;8.036;2023-06-26T11:59:35;148965.25;;;24.03;50.37
28354;BME280;15603;50.878;8.036;2023-06-26T12:02:20;148998.31;;;24.17;49.05
28354;BME280;15603;50.878;8.036;2023-06-26T12:04:48;149035.09;;;24.32;49.28
28354;BME280;15603;50.878;8.036;2023-06-26T12:07:16;149084.19;;;24.53;49.83
28354;BME280;15603;50.878;8.036;2023-06-26T12:09:46;149040.00;;;24.34;47.78
28354;BME280;15603;50.878;8.036;2023-06-26T12:12:16;149108.72;;;24.63;49.33
28354;BME280;15603;50.878;8.036;2023-06-26T12:14:44;149178.59;;;24.92;47.63
28354;BME280;15603;50.878;8.036;2023-06-26T12:17:13;149097.69;;;24.58;45.51
28354;BME280;15603;50.878;8.036;2023-06-26T12:19:46;149106.28;;;24.62;42.24
28354;BME280;15603;50.878;8.036;2023-06-26T12:22:17;149147.97;;;24.79;42.43
28354;BME280;15603;50.878;8.036;2023-06-26T12:24:45;149150.41;;;24.80;42.82
28354;BME280;15603;50.878;8.036;2023-06-26T12:27:14;149066.97;;;24.45;44.74
28354;BME280;15603;50.878;8.036;2023-06-26T12:29:52;148999.53;;;24.17;46.57
28354;BME280;15603;50.878;8.036;2023-06-26T12:32:24;148941.94;;;23.93;46.99
28354;BME280;15603;50.878;8.036;2023-06-26T12:34:56;148971.34;;;24.05;48.95
28354;BME280;15603;50.878;8.036;2023-06-26T12:37:24;148955.44;;;23.99;47.95
28354;BME280;15603;50.878;8.036;2023-06-26T12:39:56;148873.28;;;23.64;48.88
28354;BME280;15603;50.878;8.036;2023-06-26T12:42:28;148856.09;;;23.57;50.06
28354;BME280;15603;50.878;8.036;2023-06-26T12:44:55;148912.56;;;23.81;47.48
28354;BME280;15603;50.878;8.036;2023-06-26T12:47:27;149042.47;;;24.35;47.72
28354;BME280;15603;50.878;8.036;2023-06-26T12:49:54;149151.66;;;24.81;48.08
28354;BME280;15603;50.878;8.036;2023-06-26T12:52:22;149125.88;;;24.70;43.17
28354;BME280;15603;50.878;8.036;2023-06-26T12:54:53;149219.06;;;25.09;41.37
28354;BME280;15603;50.878;8.036;2023-06-26T12:57:21;149200.69;;;25.01;41.42
28354;BME280;15603;50.878;8.036;2023-06-26T12:59:48;149243.66;;;25.19;42.58
28354;BME280;15603;50.878;8.036;2023-06-26T13:02:15;149179.84;;;24.93;41.47
28354;BME280;15603;50.878;8.036;2023-06-26T13:04:42;149150.41;;;24.80;43.11
28354;BME280;15603;50.878;8.036;2023-06-26T13:07:11;149268.19;;;25.30;41.95
28354;BME280;15603;50.878;8.036;2023-06-26T13:09:39;149327.09;;;25.54;42.58